Résultats

Cross Nativitée C11 : CM2 & 6e filles. Édition 2018.

0 Km
23/03/2018 à 11:40:00 - ()
120 arrivant(e)s.





Place▲ Temps Dossard Nom Prenom Categ #Categ Sexe #Sexe Club Vit Moy Diplôme Partager
1 00:05:15 1296 BENFATAH MELISSA BEF 1 F 1 6-7 14.86
2 00:05:16 1327 CHANEY MANON BEF 2 F 2 6-8 14.81
3 00:05:16 1127 DUPIN ALEYNA BEF 3 F 3 6-1 14.81
4 00:05:28 1156 GAILLARD APOLLONIA BEF 4 F 4 6-2 14.27
5 00:05:30 1239 CHAUVIN EMMA BEF 5 F 5 6-5 14.18
6 00:05:31 1311 MARTINELLI MARIE BEF 6 F 6 6-7 14.14
7 00:05:42 1377 TOLLU DIANE POF 1 F 7 CM2-A 13.68
8 00:05:45 1132 GOUGEON-FRANGEUL JEANNE BEF 7 F 8 6-1 13.57
11 00:05:58 1349 SEIGNON MARIE BEF 8 F 9 6-8 13.07
12 00:06:00 1358 CISAMOLO CONSTANCE POF 2 F 10 CM2-A 13.00
13 00:06:01 1345 MOULIS OMBELINE BEF 9 F 11 6-8 12.96
14 00:06:03 1277 GEORGE-CRACOWSKI YSALINE BEF 10 F 12 6-6 12.89
15 00:06:05 1320 WEDCHA ELYSSA BEF 11 F 13 6-7 12.82
16 00:06:08 1294 AYME CLEMENCE BEF 12 F 14 6-7 12.72
17 00:06:09 1139 MASSE AURORE BEF 13 F 15 6-1 12.68
18 00:06:11 1283 MINGUELLA MANON BEF 14 F 16 6-6 12.61
20 00:06:16 1217 FOURNIER CHARLOTTE BEF 15 F 17 6-4 12.45
21 00:06:16 1177 BELLAIS LILY-ROSE BEF 16 F 18 6-3 12.45
22 00:06:17 1312 METAIS VALENTINE POF 3 F 19 6-7 12.41
23 00:06:18 1248 LABRACHERIE CHIARA BEF 17 F 20 6-5 12.38
24 00:06:19 1124 COURANT CAMILLE BEF 18 F 21 6-1 12.35
25 00:06:19 1370 MARIE CAROLINE POF 4 F 22 CM2-A 12.35
26 00:06:20 1365 GOBAT CHARLOTTE POF 5 F 23 CM2-A 12.32
27 00:06:21 1268 DE-BOISGELIN FLORENCE POF 6 F 24 6-6 12.28
28 00:06:22 1159 KOEMPGEN ADELE BEF 19 F 25 6-2 12.25
29 00:06:22 1247 JOUY-POLLET MARGOT BEF 20 F 26 6-5 12.25
30 00:06:22 1199 NICASTRO EMMA BEF 21 F 27 6-3 12.25
31 00:06:28 1123 CHEVALLIER MANON POF 7 F 28 6-1 12.06
32 00:06:29 1292 AMZERT LILIA BEF 22 F 29 6-7 12.03
33 00:06:29 1373 MONTEILH CAPUCINE POF 8 F 30 CM2-A 12.03
34 00:06:31 1158 GHANNANE INES BEF 23 F 31 6-2 11.97
35 00:06:32 1284 NALBADIAN LILIA BEF 24 F 32 6-6 11.94
36 00:06:35 1181 CAILLETEAU EMILIE BEF 25 F 33 6-3 11.85
37 00:06:35 1360 COSTA CAMILLE POF 9 F 34 CM2-A 11.85
38 00:06:36 1279 HUC ANNABELLE BEF 26 F 35 6-6 11.82
39 00:06:37 1351 BALIQUE EMMA POF 10 F 36 CM2-A 11.79
40 00:06:38 1272 EL-KADI ROMANE BEF 27 F 37 6-6 11.76
42 00:06:39 1325 BERTHELOT EVA-ROSE BEF 28 F 38 6-8 11.73
44 00:06:40 1375 RAZIN LEA POF 11 F 39 CM2-A 11.70
45 00:06:40 1140 NIELSEN JESSICA BEF 29 F 40 6-1 11.70
46 00:06:41 1254 ROMANO ANNA-GIULIA BEF 30 F 41 6-5 11.67
47 00:06:42 1114 ANTARAMIAN DAPHNE BEF 31 F 42 6-1 11.64
49 00:06:43 1354 BON-MARDION ROMANE POF 12 F 43 CM2-A 11.61
50 00:06:43 1338 GALLOT LILA BEF 32 F 44 6-8 11.61
51 00:06:44 1306 GIROD LISA BEF 33 F 45 6-7 11.58
53 00:06:45 1147 BRIGNOLLES MATHILDE BEF 34 F 46 6-2 11.56
54 00:06:45 1326 CADET CLARA BEF 35 F 47 6-8 11.56
55 00:06:46 1335 DUBOIS ALAIS BEF 36 F 48 6-8 11.53
56 00:06:46 1197 NADAL LOU-ANNE BEF 37 F 49 6-3 11.53
58 00:06:47 1160 LAMOINE LEONORE POF 13 F 50 6-2 11.50
59 00:06:47 1208 ARRIGHI-DE-CASANOVA CELESTE POF 14 F 51 6-4 11.50
60 00:06:48 1394 LAMY FLEUR POF 15 F 52 CM2-B 11.47
61 00:06:48 1329 COAT CANNELLE BEF 38 F 53 6-8 11.47
62 00:06:49 1281 MARTIN-SCORDIA JULIETTE BEF 39 F 54 6-6 11.44
63 00:06:50 1393 GUERIN JEANNE POF 16 F 55 CM2-B 11.41
64 00:06:50 1187 GLINEUR CLEMENTINE BEF 40 F 56 6-3 11.41
65 00:06:51 1179 BOTTOMLEY JULIA BEF 41 F 57 6-3 11.39
66 00:06:53 1343 LIVADARIS MANON BEF 42 F 58 6-8 11.33
67 00:06:54 1280 IVACHEFF RAPHAELLE BEF 43 F 59 6-6 11.30
68 00:06:56 1348 REYNAUD MALENA BEF 44 F 60 6-8 11.25
69 00:07:00 1328 CHOVELON CAMILLE BEF 45 F 61 6-8 11.14
70 00:07:00 1384 CHAN-TSUNG-YUN YUNA POF 17 F 62 CM2-B 11.14
71 00:07:00 1260 VACCHINO LUNA BEF 46 F 63 6-5 11.14
72 00:07:00 1339 GUERIN ISAURE BEF 47 F 64 6-8 11.14
73 00:07:01 1400 PERONNE LISE POF 18 F 65 CM2-B 11.12
74 00:07:03 1340 KESSOURI HILANA BEF 48 F 66 6-8 11.06
75 00:07:04 1234 BAUDART LUNA POF 19 F 67 6-5 11.04
76 00:07:05 1143 SPINNEWYN LILOU BEF 49 F 68 6-1 11.01
77 00:07:08 1238 CANONNE--SEINE ALIX BEF 50 F 69 6-5 10.93
78 00:07:08 1288 ROUSSEL ROMANE BEF 51 F 70 6-6 10.93
79 00:07:08 1285 NAUTONNIER CYRIELLE BEF 52 F 71 6-6 10.93
80 00:07:09 1213 CHIEUSSE AMBRE BEF 53 F 72 6-4 10.91
81 00:07:12 1244 GREAUX LISA BEF 54 F 73 6-5 10.83
82 00:07:12 1223 MERMOZ APOLLINE POF 20 F 74 6-4 10.83
83 00:07:16 1380 BELTRAN ALICE POF 21 F 75 CM2-B 10.73
84 00:07:17 1357 CHEVALIER ARTHEMISE POF 22 F 76 CM2-A 10.71
85 00:07:18 1198 NAKACHE SASHA BEF 55 F 77 6-3 10.68
86 00:07:18 1371 MARIETTE ROMANE POF 23 F 78 CM2-A 10.68
87 00:07:19 1364 GIRAULT GARANCE POF 24 F 79 CM2-A 10.66
88 00:07:19 1386 DARENE CLARA POF 25 F 80 CM2-B 10.66
89 00:07:20 1396 NALLET JULIE POF 26 F 81 CM2-B 10.64
90 00:07:22 1235 BONNION ELISE BEF 56 F 82 6-5 10.59
91 00:07:23 1389 FRANCOIS JULIETTE POF 27 F 83 CM2-B 10.56
92 00:07:25 1120 CAPITANI AGATHE BEF 57 F 84 6-1 10.52
93 00:07:26 1146 BAPTISTE LEANE BEF 58 F 85 6-2 10.49
94 00:07:26 1366 GUARINO JOULIA POF 28 F 86 CM2-A 10.49
95 00:07:26 1229 SIMONI LOUISA POF 29 F 87 6-4 10.49
96 00:07:28 1188 HAMROUNI SIRINE BEF 59 F 88 6-3 10.45
97 00:07:30 1372 MASRIERA BRUNE POF 30 F 89 CM2-A 10.40
98 00:07:31 1390 GARCIA MAR BEF 60 F 90 CM2-B 10.38
99 00:07:32 1144 VIBOUD CAROLINE BEF 61 F 91 6-1 10.35
100 00:07:32 1404 SANTOLINI MORGANE POF 31 F 92 CM2-B 10.35